Time;durP1;ratioP1;P1;durP2;ratioP2;P2;SDS_P1;SDS_P2;PMS_P1;PMS_P2;Temp;Humidity;BMP_temperature;BMP_pressure;BME280_temperature;BME280_humidity;BME280_pressure;Samples;Min_cycle;Max_cycle;Signal;HPM_P1;HPM_P2
2023/10/30 00:00:48;;;;;;;7.37;1.60;;;;;;;;;;5062373;28;20467;-75
2023/10/30 00:03:24;;;;;;;4.30;1.47;;;;;;;;;;5074288;28;20467;-77
2023/10/30 00:05:52;;;;;;;4.50;1.37;;;;;;;;;;5080783;28;20456;-77
2023/10/30 00:08:28;;;;;;;2.00;0.80;;;;;;;;;;5078838;28;20740;-76
2023/10/30 00:10:56;;;;;;;2.83;1.13;;;;;;;;;;5079188;28;20499;-75
2023/10/30 00:13:24;;;;;;;1.70;0.70;;;;;;;;;;5079154;28;20997;-74
2023/10/30 00:15:55;;;;;;;2.90;0.73;;;;;;;;;;5078242;28;20468;-76
2023/10/30 00:18:25;;;;;;;3.60;1.40;;;;;;;;;;5078584;28;20894;-76
2023/10/30 00:20:52;;;;;;;5.07;0.87;;;;;;;;;;5079490;28;20556;-77
2023/10/30 00:23:23;;;;;;;3.07;2.10;;;;;;;;;;5069303;28;20552;-77
2023/10/30 00:25:52;;;;;;;3.97;0.80;;;;;;;;;;5081172;28;20456;-77
2023/10/30 00:28:20;;;;;;;5.73;1.50;;;;;;;;;;5082719;28;20515;-76
2023/10/30 00:30:48;;;;;;;5.23;0.97;;;;;;;;;;5079586;28;20464;-77
2023/10/30 00:33:20;;;;;;;7.13;1.03;;;;;;;;;;5079886;28;20464;-75
2023/10/30 00:35:47;;;;;;;3.27;0.80;;;;;;;;;;5063687;28;20457;-76
2023/10/30 00:38:15;;;;;;;2.63;1.20;;;;;;;;;;5077152;28;20537;-75
2023/10/30 00:40:43;;;;;;;2.10;0.70;;;;;;;;;;5075747;28;20448;-77
2023/10/30 00:43:11;;;;;;;3.77;1.70;;;;;;;;;;5077460;28;20463;-76
2023/10/30 00:45:44;;;;;;;5.00;1.00;;;;;;;;;;5077643;28;20456;-76
2023/10/30 00:48:12;;;;;;;2.70;0.80;;;;;;;;;;5078223;28;20819;-76
2023/10/30 00:50:41;;;;;;;5.60;1.20;;;;;;;;;;5060789;28;20492;-77
2023/10/30 00:53:10;;;;;;;3.63;0.90;;;;;;;;;;5070608;28;20518;-77
2023/10/30 00:55:41;;;;;;;5.43;1.27;;;;;;;;;;5077779;28;20765;-76
2023/10/30 00:58:09;;;;;;;3.77;1.00;;;;;;;;;;5080389;28;20468;-76
2023/10/30 01:00:36;;;;;;;4.20;0.93;;;;;;;;;;5081773;28;20459;-77
2023/10/30 01:03:04;;;;;;;4.70;1.30;;;;;;;;;;5065583;28;20453;-75
2023/10/30 01:05:38;;;;;;;3.63;1.00;;;;;;;;;;5061037;28;20457;-76
2023/10/30 01:08:18;;;;;;;3.60;0.80;;;;;;;;;;5069396;28;20489;-78
2023/10/30 01:10:46;;;;;;;6.60;1.00;;;;;;;;;;5086101;28;20522;-76
2023/10/30 01:13:14;;;;;;;3.70;1.00;;;;;;;;;;5085157;28;20460;-74
2023/10/30 01:15:42;;;;;;;5.03;1.30;;;;;;;;;;5086256;28;20463;-77
2023/10/30 01:18:09;;;;;;;2.77;0.90;;;;;;;;;;5084196;28;20651;-76
2023/10/30 01:20:51;;;;;;;3.87;1.23;;;;;;;;;;5084669;28;21048;-76
2023/10/30 01:23:24;;;;;;;2.93;1.27;;;;;;;;;;5084194;28;20486;-76
2023/10/30 01:25:53;;;;;;;6.53;1.57;;;;;;;;;;5084553;28;20683;-76
2023/10/30 01:28:23;;;;;;;4.20;1.00;;;;;;;;;;5083562;28;21018;-76
2023/10/30 01:30:50;;;;;;;4.20;1.10;;;;;;;;;;5079136;28;20932;-76
2023/10/30 01:33:18;;;;;;;6.53;1.20;;;;;;;;;;5069052;28;20449;-75
2023/10/30 01:35:48;;;;;;;8.03;1.30;;;;;;;;;;5054211;28;20441;-76
2023/10/30 01:38:15;;;;;;;3.07;1.17;;;;;;;;;;5068930;28;20457;-76
2023/10/30 01:40:51;;;;;;;3.37;1.00;;;;;;;;;;5067711;28;20519;-75
2023/10/30 01:43:29;;;;;;;4.87;1.77;;;;;;;;;;5068679;28;20460;-75
2023/10/30 01:45:57;;;;;;;3.47;1.20;;;;;;;;;;5068953;28;20453;-76
2023/10/30 01:48:25;;;;;;;7.77;2.23;;;;;;;;;;5078054;28;20452;-77
2023/10/30 01:50:52;;;;;;;6.17;1.03;;;;;;;;;;5080867;28;20481;-76
2023/10/30 01:53:20;;;;;;;6.93;1.40;;;;;;;;;;5044415;28;20468;-75
2023/10/30 01:55:50;;;;;;;6.90;1.33;;;;;;;;;;5048623;28;20434;-75
2023/10/30 01:58:19;;;;;;;5.70;1.30;;;;;;;;;;5065005;28;20908;-76
2023/10/30 02:00:47;;;;;;;6.30;1.43;;;;;;;;;;5046861;28;20469;-76
2023/10/30 02:03:14;;;;;;;2.03;0.77;;;;;;;;;;5044732;28;20458;-76
2023/10/30 02:05:45;;;;;;;4.30;1.23;;;;;;;;;;5042596;28;20477;-77
2023/10/30 02:08:13;;;;;;;4.33;1.40;;;;;;;;;;5041908;28;20469;-76
2023/10/30 02:10:42;;;;;;;2.20;0.93;;;;;;;;;;5041963;28;20587;-76
2023/10/30 02:13:11;;;;;;;5.37;1.10;;;;;;;;;;5082586;28;20468;-75
2023/10/30 02:15:41;;;;;;;5.40;1.63;;;;;;;;;;5082375;28;20452;-76
2023/10/30 02:18:10;;;;;;;3.30;1.10;;;;;;;;;;5083395;28;20744;-76
2023/10/30 02:20:38;;;;;;;4.10;1.10;;;;;;;;;;5078385;28;20539;-76
2023/10/30 02:23:06;;;;;;;5.57;1.20;;;;;;;;;;5080984;28;20779;-75
2023/10/30 02:25:35;;;;;;;3.93;0.87;;;;;;;;;;5079608;28;20455;-75
2023/10/30 02:28:11;;;;;;;8.87;1.10;;;;;;;;;;5047945;28;20497;-75
2023/10/30 02:30:38;;;;;;;4.37;1.00;;;;;;;;;;5073227;28;20945;-76
2023/10/30 02:33:06;;;;;;;3.90;0.80;;;;;;;;;;5079233;28;20437;-75
2023/10/30 02:35:34;;;;;;;3.10;1.00;;;;;;;;;;5080616;28;20911;-76
2023/10/30 02:38:05;;;;;;;4.30;1.10;;;;;;;;;;5081300;28;20460;-74
2023/10/30 02:40:35;;;;;;;3.47;0.90;;;;;;;;;;5081637;28;20456;-74
2023/10/30 02:43:04;;;;;;;4.93;1.47;;;;;;;;;;5081061;28;20456;-76
2023/10/30 02:45:31;;;;;;;3.70;1.00;;;;;;;;;;5080581;28;20460;-76
2023/10/30 02:48:01;;;;;;;3.23;1.03;;;;;;;;;;5082050;28;20512;-75
2023/10/30 02:50:29;;;;;;;5.60;0.97;;;;;;;;;;5082530;28;20524;-76
2023/10/30 02:52:59;;;;;;;6.30;3.27;;;;;;;;;;5082048;28;20464;-75
2023/10/30 02:55:27;;;;;;;5.77;1.30;;;;;;;;;;5081827;28;20733;-77
2023/10/30 02:58:00;;;;;;;2.30;1.00;;;;;;;;;;5082951;28;20459;-76
2023/10/30 03:00:29;;;;;;;3.40;1.00;;;;;;;;;;5081748;28;20594;-74
2023/10/30 03:02:56;;;;;;;3.60;2.13;;;;;;;;;;5083720;28;20448;-75
2023/10/30 03:05:31;;;;;;;2.67;0.90;;;;;;;;;;5081568;28;20864;-76
2023/10/30 03:08:01;;;;;;;3.87;1.40;;;;;;;;;;5081775;28;20456;-75
2023/10/30 03:10:32;;;;;;;2.77;0.90;;;;;;;;;;5082636;28;20464;-74
2023/10/30 03:13:00;;;;;;;3.77;1.10;;;;;;;;;;5081997;28;20514;-74
2023/10/30 03:15:29;;;;;;;2.47;0.90;;;;;;;;;;5082557;28;20441;-76
2023/10/30 03:17:57;;;;;;;6.30;1.40;;;;;;;;;;5080574;28;20453;-75
2023/10/30 03:20:24;;;;;;;9.63;1.30;;;;;;;;;;5083111;28;20452;-76
2023/10/30 03:22:54;;;;;;;4.23;1.70;;;;;;;;;;5081478;28;20456;-75
2023/10/30 03:25:21;;;;;;;4.90;1.20;;;;;;;;;;5082177;28;20916;-77
2023/10/30 03:27:49;;;;;;;2.43;0.80;;;;;;;;;;5078697;28;20540;-77
2023/10/30 03:30:17;;;;;;;5.77;1.30;;;;;;;;;;5061237;28;20500;-76
2023/10/30 03:32:47;;;;;;;4.17;1.07;;;;;;;;;;5058953;28;20465;-76
2023/10/30 03:35:15;;;;;;;4.10;1.17;;;;;;;;;;5069102;28;20477;-75
2023/10/30 03:37:43;;;;;;;3.77;1.27;;;;;;;;;;5077887;28;20452;-76
2023/10/30 03:40:11;;;;;;;6.93;1.30;;;;;;;;;;5078168;28;20452;-75
2023/10/30 03:42:38;;;;;;;6.47;1.20;;;;;;;;;;5080027;28;20563;-75
2023/10/30 03:45:07;;;;;;;8.43;1.37;;;;;;;;;;5080241;28;20517;-76
2023/10/30 03:47:34;;;;;;;4.60;1.30;;;;;;;;;;5080869;28;21026;-76
2023/10/30 03:50:13;;;;;;;6.90;2.03;;;;;;;;;;5081825;28;20496;-75
2023/10/30 03:52:41;;;;;;;3.77;0.90;;;;;;;;;;5081745;28;20460;-76
2023/10/30 03:55:10;;;;;;;3.43;0.90;;;;;;;;;;5081609;28;20495;-75
2023/10/30 03:57:40;;;;;;;4.00;1.00;;;;;;;;;;5080309;28;20453;-76
2023/10/30 04:00:11;;;;;;;4.50;1.57;;;;;;;;;;5080221;28;20487;-77
2023/10/30 04:02:40;;;;;;;5.90;1.47;;;;;;;;;;5080532;28;20457;-76
2023/10/30 04:05:10;;;;;;;3.33;1.37;;;;;;;;;;5081528;28;20468;-76
2023/10/30 04:07:37;;;;;;;7.13;1.40;;;;;;;;;;5083246;28;20871;-76
2023/10/30 04:10:16;;;;;;;4.83;1.27;;;;;;;;;;5080861;28;20495;-77
2023/10/30 04:12:43;;;;;;;9.77;1.53;;;;;;;;;;5082159;28;20452;-76
2023/10/30 04:15:11;;;;;;;5.80;1.87;;;;;;;;;;5079504;28;20659;-75
2023/10/30 04:17:41;;;;;;;3.47;1.07;;;;;;;;;;5078202;28;20444;-76
2023/10/30 04:20:11;;;;;;;3.40;1.10;;;;;;;;;;5079635;28;20459;-76
2023/10/30 04:22:38;;;;;;;7.00;1.43;;;;;;;;;;5076673;28;20456;-76
2023/10/30 04:25:07;;;;;;;7.40;1.33;;;;;;;;;;5076606;28;20660;-77
2023/10/30 04:27:34;;;;;;;7.10;1.50;;;;;;;;;;5078186;28;20445;-76
2023/10/30 04:30:08;;;;;;;3.60;1.00;;;;;;;;;;5075449;28;20488;-78
2023/10/30 04:32:36;;;;;;;6.30;1.40;;;;;;;;;;5079185;28;20453;-77
2023/10/30 04:35:04;;;;;;;4.03;1.10;;;;;;;;;;5075453;28;20488;-77
2023/10/30 04:37:34;;;;;;;4.07;1.20;;;;;;;;;;5078317;28;20452;-77
